Partenope — ICCZ — position and weather

sailwx.info

Track history (hours):
 
Tides and Currents Weather Stations Pressure Air Temp Water Temp Dewpoint Dewpoint Depression Visibility Wind Speed Wind Dir Waves Ship Positions

Partenope

Last reported at 2015-Apr-04 21:13 UTC. Time now 2015-Jul-28 21:46 UTC.
Position N 40°18' E 014°25'.
Warning: this ship's position is months out of date.

Length 186 m; draft 6.2 m.

Type: Passenger vessel. MMSI: 247060500.

Date/timePositionNaut miles runAvg speedWind from/ knotsBaromVisibWave heightAir tempDewpointWater temp
2015-Apr-04 21:13N 40°18' E 014°25'1319.8
2015-Apr-04 20:33N 40°30' E 014°18'2019.6
2015-Apr-04 19:33N 40°49' E 014°17'1 0.1
2015-Apr-04 06:19N 40°50' E 014°16'3 3.5
2015-Apr-04 05:33N 40°48' E 014°17'1919.1
2015-Apr-04 04:33N 40°29' E 014°22'12 0.4
2015-Apr-02 21:28N 40°17' E 014°26'1819.8
2015-Apr-02 20:33N 40°34' E 014°17'16 1.8
2015-Apr-02 11:21N 40°50' E 014°16'0 0.0
2015-Apr-02 10:20N 40°50' E 014°16'0 0.3
2015-Apr-02 09:33N 40°50' E 014°16'1616.4
2015-Apr-02 08:33N 40°34' E 014°17'14 0.4
2015-Mar-31 21:19N 40°21' E 014°24'1519.9
2015-Mar-31 20:33N 40°35' E 014°17'11 1.0
2015-Mar-31 09:33N 40°46' E 014°17'1818.5
2015-Mar-31 08:33N 40°28' E 014°22'9 0.3
2015-Mar-29 19:27N 40°19' E 014°25'1819.7
2015-Mar-29 18:33N 40°35' E 014°17'15 2.0
2015-Mar-29 11:10N 40°50' E 014°16'813.8
2015-Mar-29 10:33N 40°42' E 014°17'1818.1
2015-Mar-29 09:33N 40°25' E 014°24'10 0.3
2015-Mar-27 22:18N 40°14' E 014°28'1419.2
2015-Mar-27 21:34N 40°28' E 014°20'2019.4
2015-Mar-27 20:33N 40°47' E 014°17'3 0.4
2015-Mar-27 11:16N 40°50' E 014°16'1 0.6
2015-Mar-27 10:22N 40°50' E 014°16'1518.0
2015-Mar-27 09:33N 40°35' E 014°16'2019.3
2015-Mar-27 08:31N 40°17' E 014°28'2 0.0
2015-Mar-25 22:30N 40°16' E 014°27'1818.8
2015-Mar-25 21:33N 40°33' E 014°17'  
Track history (hours):
 
Tides and Currents Weather Stations Pressure Air Temp Water Temp Dewpoint Dewpoint Depression Visibility Wind Speed Wind Dir Waves Ship Positions

Partenope

Last reported at 2015-Apr-04 21:13 UTC. Time now 2015-Jul-28 21:46 UTC.
Position N 40°18' E 014°25'.
Warning: this ship's position is months out of date.

Length 186 m; draft 6.2 m.

Type: Passenger vessel. MMSI: 247060500.

Date/timePositionNaut miles runAvg speedWind from/ knotsBaromVisibWave heightAir tempDewpointWater temp
2015-Apr-04 21:13N 40°18' E 014°25'1319.8
2015-Apr-04 20:33N 40°30' E 014°18'2019.6
2015-Apr-04 19:33N 40°49' E 014°17'1 0.1
2015-Apr-04 06:19N 40°50' E 014°16'3 3.5
2015-Apr-04 05:33N 40°48' E 014°17'1919.1
2015-Apr-04 04:33N 40°29' E 014°22'12 0.4
2015-Apr-02 21:28N 40°17' E 014°26'1819.8
2015-Apr-02 20:33N 40°34' E 014°17'16 1.8
2015-Apr-02 11:21N 40°50' E 014°16'0 0.0
2015-Apr-02 10:20N 40°50' E 014°16'0 0.3
2015-Apr-02 09:33N 40°50' E 014°16'1616.4
2015-Apr-02 08:33N 40°34' E 014°17'14 0.4
2015-Mar-31 21:19N 40°21' E 014°24'1519.9
2015-Mar-31 20:33N 40°35' E 014°17'11 1.0
2015-Mar-31 09:33N 40°46' E 014°17'1818.5
2015-Mar-31 08:33N 40°28' E 014°22'9 0.3
2015-Mar-29 19:27N 40°19' E 014°25'1819.7
2015-Mar-29 18:33N 40°35' E 014°17'15 2.0
2015-Mar-29 11:10N 40°50' E 014°16'813.8
2015-Mar-29 10:33N 40°42' E 014°17'1818.1
2015-Mar-29 09:33N 40°25' E 014°24'10 0.3
2015-Mar-27 22:18N 40°14' E 014°28'1419.2
2015-Mar-27 21:34N 40°28' E 014°20'2019.4
2015-Mar-27 20:33N 40°47' E 014°17'3 0.4
2015-Mar-27 11:16N 40°50' E 014°16'1 0.6
2015-Mar-27 10:22N 40°50' E 014°16'1518.0
2015-Mar-27 09:33N 40°35' E 014°16'2019.3
2015-Mar-27 08:31N 40°17' E 014°28'2 0.0
2015-Mar-25 22:30N 40°16' E 014°27'1818.8
2015-Mar-25 21:33N 40°33' E 014°17'  

Dump ship's entire track history